createdAt,value
2018-10-16T00:00:58.982Z,7.93
2018-10-16T00:03:33.215Z,9.20
2018-10-16T00:06:08.390Z,8.60
2018-10-16T00:08:42.742Z,8.60
2018-10-16T00:11:17.128Z,8.67
2018-10-16T00:13:51.602Z,8.43
2018-10-16T00:16:25.898Z,9.63
2018-10-16T00:19:00.069Z,8.43
2018-10-16T00:21:34.403Z,8.57
2018-10-16T00:24:08.774Z,9.70
2018-10-16T00:26:43.206Z,9.23
2018-10-16T00:29:17.610Z,8.57
2018-10-16T00:31:52.022Z,9.30
2018-10-16T00:34:26.362Z,9.10
2018-10-16T00:37:00.635Z,9.00
2018-10-16T00:39:34.974Z,8.83
2018-10-16T00:42:09.335Z,8.97
2018-10-16T00:44:43.651Z,8.70
2018-10-16T00:47:18.054Z,8.37
2018-10-16T00:49:52.361Z,9.53
2018-10-16T00:52:26.797Z,8.90
2018-10-16T00:55:01.257Z,9.07
2018-10-16T00:57:35.795Z,9.30
2018-10-16T01:00:11.261Z,8.23
2018-10-16T01:02:45.633Z,8.50
2018-10-16T01:05:19.936Z,9.30
2018-10-16T01:07:54.327Z,8.83
2018-10-16T01:10:28.855Z,8.87
2018-10-16T01:13:03.106Z,9.23
2018-10-16T01:15:37.391Z,8.67
2018-10-16T01:18:11.845Z,9.00
2018-10-16T01:20:46.086Z,9.07
2018-10-16T01:23:20.383Z,8.30
2018-10-16T01:25:54.769Z,8.97
2018-10-16T01:28:29.075Z,9.10
2018-10-16T01:31:03.450Z,8.73
2018-10-16T01:33:38.598Z,8.90
2018-10-16T01:36:12.786Z,9.07
2018-10-16T01:38:47.022Z,8.53
2018-10-16T01:41:21.415Z,8.83
2018-10-16T01:43:55.818Z,9.53
2018-10-16T01:46:30.070Z,8.97
2018-10-16T01:49:04.446Z,9.07
2018-10-16T01:51:38.654Z,9.03
2018-10-16T01:54:12.866Z,8.60
2018-10-16T01:56:47.162Z,9.33
2018-10-16T01:59:21.494Z,9.50
2018-10-16T02:01:55.985Z,8.90
2018-10-16T02:04:30.311Z,9.50
2018-10-16T02:07:04.711Z,8.53
2018-10-16T02:09:39.042Z,8.80
2018-10-16T02:12:13.362Z,8.47
2018-10-16T02:14:47.788Z,9.03
2018-10-16T02:17:22.178Z,8.87
2018-10-16T02:19:56.480Z,9.50
2018-10-16T02:22:30.635Z,9.03
2018-10-16T02:25:04.914Z,9.10
2018-10-16T02:27:39.674Z,9.13
2018-10-16T02:30:14.158Z,9.57
2018-10-16T02:32:48.516Z,10.10
2018-10-16T02:35:22.748Z,9.33
2018-10-16T02:37:56.951Z,9.80
2018-10-16T02:40:31.143Z,8.93
2018-10-16T02:43:05.826Z,9.60
2018-10-16T02:45:40.048Z,9.13
2018-10-16T02:48:14.399Z,8.50
2018-10-16T02:50:48.822Z,9.23
2018-10-16T02:53:23.149Z,8.90
2018-10-16T02:55:57.551Z,9.20
2018-10-16T02:58:31.954Z,8.70
2018-10-16T03:01:06.838Z,8.63
2018-10-16T03:03:41.078Z,8.63
2018-10-16T03:06:15.528Z,9.70
2018-10-16T03:08:49.796Z,9.30
2018-10-16T03:11:24.114Z,8.97
2018-10-16T03:13:58.360Z,9.30
2018-10-16T03:16:32.528Z,9.93
2018-10-16T03:19:06.841Z,10.00
2018-10-16T03:21:41.306Z,9.57
2018-10-16T03:24:15.565Z,9.13
2018-10-16T03:26:49.990Z,9.00
2018-10-16T03:29:24.394Z,9.93
2018-10-16T03:31:58.666Z,9.50
2018-10-16T03:34:32.874Z,9.57
2018-10-16T03:37:07.319Z,9.30
2018-10-16T03:39:41.702Z,9.43
2018-10-16T03:42:15.980Z,9.20
2018-10-16T03:44:50.386Z,9.73
2018-10-16T03:47:24.895Z,10.23
2018-10-16T03:49:59.118Z,10.27
2018-10-16T03:52:33.451Z,9.87
2018-10-16T03:55:08.138Z,10.17
2018-10-16T03:57:42.615Z,10.57
2018-10-16T04:00:17.015Z,9.07
2018-10-16T04:02:51.338Z,9.63
2018-10-16T04:05:25.750Z,9.23
2018-10-16T04:08:00.102Z,9.40
2018-10-16T04:10:34.507Z,9.53
2018-10-16T04:13:08.906Z,10.33
2018-10-16T04:15:43.115Z,9.37
2018-10-16T04:18:17.514Z,9.83
2018-10-16T04:20:51.755Z,10.10
2018-10-16T04:23:26.066Z,10.67
2018-10-16T04:26:00.301Z,10.20
2018-10-16T04:28:34.630Z,10.63
2018-10-16T04:31:10.309Z,9.93
2018-10-16T04:33:44.567Z,9.83
2018-10-16T04:36:18.991Z,10.30
2018-10-16T04:38:53.278Z,9.97
2018-10-16T04:41:27.660Z,9.73
2018-10-16T04:44:01.830Z,10.40
2018-10-16T04:46:36.252Z,9.93
2018-10-16T04:49:10.503Z,9.60
2018-10-16T04:51:44.943Z,9.60
2018-10-16T04:54:19.269Z,9.67
2018-10-16T04:56:53.455Z,10.33
2018-10-16T04:59:27.749Z,10.27
2018-10-16T05:02:02.180Z,10.70
2018-10-16T05:04:36.634Z,10.53
2018-10-16T05:07:11.063Z,10.03
2018-10-16T05:09:45.343Z,10.20
2018-10-16T05:12:19.670Z,10.00
2018-10-16T05:14:53.894Z,9.53
2018-10-16T05:17:28.375Z,11.23
2018-10-16T05:20:02.768Z,9.27
2018-10-16T05:22:36.955Z,10.23
2018-10-16T05:25:11.370Z,10.77
2018-10-16T05:27:45.594Z,10.13
2018-10-16T05:30:19.882Z,9.80
2018-10-16T05:32:54.082Z,10.43
2018-10-16T05:35:28.388Z,10.37
2018-10-16T05:38:02.718Z,10.93
2018-10-16T05:40:37.123Z,10.80
2018-10-16T05:43:11.418Z,10.00
2018-10-16T05:45:46.631Z,9.63
2018-10-16T05:48:20.943Z,9.50
2018-10-16T05:50:55.183Z,10.60
2018-10-16T05:53:29.580Z,10.00
2018-10-16T05:56:05.954Z,10.50
2018-10-16T05:58:40.387Z,10.23
2018-10-16T06:01:14.648Z,9.83
2018-10-16T06:03:48.796Z,9.73
2018-10-16T06:06:23.123Z,10.07
2018-10-16T06:08:57.363Z,10.63
2018-10-16T06:11:31.663Z,10.40
2018-10-16T06:14:06.110Z,8.87
2018-10-16T06:16:40.363Z,9.60
2018-10-16T06:19:14.567Z,11.03
2018-10-16T06:21:48.730Z,10.27
2018-10-16T06:24:23.216Z,9.77
2018-10-16T06:26:57.555Z,10.10
2018-10-16T06:29:31.854Z,9.00
2018-10-16T06:32:06.383Z,10.03
2018-10-16T06:34:40.574Z,9.93
2018-10-16T06:37:14.879Z,10.50
2018-10-16T06:39:49.310Z,10.30
2018-10-16T06:42:23.638Z,10.97
2018-10-16T06:44:58.012Z,10.47
2018-10-16T06:47:32.425Z,10.83
2018-10-16T06:50:08.471Z,9.97
2018-10-16T06:52:42.802Z,9.97
2018-10-16T06:55:17.135Z,11.30
2018-10-16T06:57:51.347Z,10.47
2018-10-16T07:00:25.759Z,10.80
2018-10-16T07:03:00.059Z,10.80
2018-10-16T07:05:34.350Z,10.60
2018-10-16T07:08:08.530Z,11.47
2018-10-16T07:10:42.871Z,10.27
2018-10-16T07:13:17.202Z,10.33
2018-10-16T07:15:51.496Z,11.13
2018-10-16T07:18:25.799Z,11.20
2018-10-16T07:21:00.122Z,11.30
2018-10-16T07:23:34.667Z,11.67
2018-10-16T07:26:09.214Z,10.47
2018-10-16T07:28:43.390Z,10.70
2018-10-16T07:31:17.666Z,11.53
2018-10-16T07:33:52.188Z,11.97
2018-10-16T07:36:26.663Z,12.13
2018-10-16T07:39:01.130Z,11.83
2018-10-16T07:41:35.282Z,13.07
2018-10-16T07:44:10.090Z,12.40
2018-10-16T07:46:44.390Z,12.73
2018-10-16T07:49:18.774Z,12.90
2018-10-16T07:51:53.103Z,13.47
2018-10-16T07:54:27.481Z,12.97
2018-10-16T07:57:01.643Z,13.83
2018-10-16T07:59:36.039Z,11.60
2018-10-16T08:02:10.335Z,12.93
2018-10-16T08:04:44.669Z,14.17
2018-10-16T08:07:18.972Z,13.73
2018-10-16T08:09:53.411Z,12.10
2018-10-16T08:12:27.825Z,12.00
2018-10-16T08:15:02.139Z,12.43
2018-10-16T08:17:36.471Z,12.93
2018-10-16T08:20:10.769Z,12.90
2018-10-16T08:22:44.947Z,13.97
2018-10-16T08:25:19.354Z,12.23
2018-10-16T08:27:53.623Z,13.50
2018-10-16T08:30:27.929Z,13.07
2018-10-16T08:33:02.259Z,12.40
2018-10-16T08:35:36.703Z,12.43
2018-10-16T08:40:18.759Z,12.30
2018-10-16T08:43:20.410Z,12.43
2018-10-16T08:46:05.987Z,12.13
2018-10-16T08:48:51.692Z,12.47
2018-10-16T08:51:36.450Z,12.27
2018-10-16T08:54:10.961Z,12.27
2018-10-16T08:56:45.115Z,12.67
2018-10-16T08:59:19.486Z,12.90
2018-10-16T09:01:53.859Z,12.47
2018-10-16T09:04:28.211Z,11.27
2018-10-16T09:07:02.527Z,12.97
2018-10-16T09:09:36.707Z,13.03
2018-10-16T09:12:10.893Z,12.23
2018-10-16T09:14:45.711Z,11.83
2018-10-16T09:17:20.067Z,12.70
2018-10-16T09:19:54.579Z,12.90
2018-10-16T09:22:29.490Z,11.53
2018-10-16T09:25:03.698Z,12.03
2018-10-16T09:27:38.546Z,12.83
2018-10-16T09:30:13.891Z,12.17
2018-10-16T09:32:48.443Z,12.60
2018-10-16T09:35:22.880Z,12.90
2018-10-16T09:37:57.162Z,13.40
2018-10-16T09:40:31.442Z,13.83
2018-10-16T09:43:06.049Z,13.87
2018-10-16T09:45:40.326Z,12.20
2018-10-16T09:48:14.630Z,13.17
2018-10-16T09:50:49.034Z,13.33
2018-10-16T09:53:23.443Z,13.87
2018-10-16T09:55:57.699Z,13.70
2018-10-16T09:58:32.052Z,13.87
2018-10-16T10:01:11.706Z,12.67
2018-10-16T10:03:45.887Z,13.80
2018-10-16T10:06:20.246Z,13.60
2018-10-16T10:08:54.618Z,14.30
2018-10-16T10:11:29.118Z,14.33
2018-10-16T10:14:03.394Z,14.00
2018-10-16T10:16:37.965Z,15.10
2018-10-16T10:19:12.203Z,14.63
2018-10-16T10:21:46.433Z,14.57
2018-10-16T10:24:20.645Z,16.03
2018-10-16T10:26:54.814Z,13.63
2018-10-16T10:29:29.115Z,13.80
2018-10-16T10:32:03.430Z,14.67
2018-10-16T10:34:37.736Z,15.40
2018-10-16T10:37:12.070Z,13.77
2018-10-16T10:39:46.266Z,15.70
2018-10-16T10:42:20.574Z,17.00
2018-10-16T10:44:54.740Z,15.90
2018-10-16T10:47:28.970Z,14.43
2018-10-16T10:50:03.228Z,15.63
2018-10-16T10:52:37.692Z,16.10
2018-10-16T10:55:11.915Z,14.90
2018-10-16T10:57:46.091Z,15.37
2018-10-16T11:00:20.395Z,15.27
2018-10-16T11:02:54.761Z,15.13
2018-10-16T11:05:29.098Z,16.37
2018-10-16T11:08:03.363Z,14.53
2018-10-16T11:10:37.687Z,14.53
2018-10-16T11:13:11.862Z,14.20
2018-10-16T11:15:46.187Z,14.53
2018-10-16T11:18:20.507Z,14.50
2018-10-16T11:20:54.908Z,13.97
2018-10-16T11:23:29.378Z,14.63
2018-10-16T11:26:03.657Z,13.57
2018-10-16T11:28:37.906Z,14.70
2018-10-16T11:31:12.200Z,14.60
2018-10-16T11:33:46.514Z,15.20
2018-10-16T11:36:22.121Z,15.67
2018-10-16T11:38:56.517Z,15.90
2018-10-16T11:41:31.262Z,15.10
2018-10-16T11:44:05.933Z,15.43
2018-10-16T11:46:40.700Z,14.93
2018-10-16T11:49:15.038Z,16.20
2018-10-16T11:51:49.355Z,14.00
2018-10-16T11:54:23.655Z,15.90
2018-10-16T11:56:57.955Z,15.10
2018-10-16T11:59:32.316Z,14.90
2018-10-16T12:02:06.575Z,14.83
2018-10-16T12:04:40.939Z,13.27
2018-10-16T12:07:15.274Z,13.57
2018-10-16T12:09:49.602Z,13.87
2018-10-16T12:12:23.854Z,13.40
2018-10-16T12:14:58.159Z,13.87
2018-10-16T12:18:05.811Z,13.73
2018-10-16T12:20:44.314Z,13.57
2018-10-16T12:23:18.498Z,13.50
2018-10-16T12:25:52.954Z,13.13
2018-10-16T12:28:27.138Z,13.03
2018-10-16T12:31:01.452Z,13.93
2018-10-16T12:33:35.712Z,14.23
2018-10-16T12:36:09.998Z,13.10
2018-10-16T12:38:44.287Z,14.60
2018-10-16T12:41:18.590Z,14.03
2018-10-16T12:43:53.096Z,14.73
2018-10-16T12:46:27.467Z,14.23
2018-10-16T12:49:01.843Z,14.67
2018-10-16T12:51:36.279Z,15.80
2018-10-16T12:54:10.731Z,14.53
2018-10-16T12:56:45.040Z,13.07
2018-10-16T12:59:19.291Z,13.43
2018-10-16T13:01:53.647Z,14.23
2018-10-16T13:04:27.794Z,14.10
2018-10-16T13:07:09.275Z,12.60
2018-10-16T13:09:43.467Z,14.37
2018-10-16T13:12:17.654Z,13.70
2018-10-16T13:14:51.991Z,13.37
2018-10-16T13:17:26.451Z,14.03
2018-10-16T13:20:00.695Z,14.50
2018-10-16T13:22:35.003Z,15.90
2018-10-16T13:25:11.118Z,14.60
2018-10-16T13:27:45.494Z,14.70
2018-10-16T13:30:20.542Z,14.03
2018-10-16T13:32:54.932Z,13.83
2018-10-16T13:35:29.243Z,13.67
2018-10-16T13:38:03.613Z,13.20
2018-10-16T13:40:37.764Z,11.90
2018-10-16T13:43:12.155Z,12.97
2018-10-16T13:45:46.430Z,12.87
2018-10-16T13:48:20.742Z,13.60
2018-10-16T13:50:54.915Z,14.27
2018-10-16T13:53:29.246Z,12.40
2018-10-16T13:56:03.605Z,12.97
2018-10-16T13:58:37.878Z,12.53
2018-10-16T14:01:12.191Z,12.83
2018-10-16T14:03:46.386Z,12.90
2018-10-16T14:06:20.706Z,12.83
2018-10-16T14:08:55.017Z,13.57
2018-10-16T14:11:29.354Z,12.87
2018-10-16T14:14:03.840Z,13.60
2018-10-16T14:16:38.123Z,13.80
2018-10-16T14:19:12.515Z,14.20
2018-10-16T14:21:46.839Z,13.17
2018-10-16T14:24:21.171Z,14.20
2018-10-16T14:26:55.551Z,13.10
2018-10-16T14:29:29.770Z,15.13
2018-10-16T14:32:04.364Z,14.27
2018-10-16T14:34:38.893Z,14.47
2018-10-16T14:37:13.066Z,14.27
2018-10-16T14:39:47.210Z,13.67
2018-10-16T14:42:21.538Z,14.70
2018-10-16T14:44:55.797Z,14.87
2018-10-16T14:47:30.150Z,14.83
2018-10-16T14:50:04.444Z,14.53
2018-10-16T14:52:38.682Z,15.20
2018-10-16T14:55:13.040Z,13.20
2018-10-16T14:57:47.486Z,15.53
2018-10-16T15:00:21.714Z,13.80
2018-10-16T15:02:55.958Z,14.00
2018-10-16T15:05:31.214Z,13.60
2018-10-16T15:08:05.665Z,13.60
2018-10-16T15:10:39.958Z,13.47
2018-10-16T15:13:14.262Z,12.47
2018-10-16T15:15:48.601Z,13.60
2018-10-16T15:18:22.804Z,15.30
2018-10-16T15:20:59.407Z,15.07
2018-10-16T15:23:34.670Z,15.00
2018-10-16T15:26:09.093Z,15.23
2018-10-16T15:28:43.294Z,13.53
2018-10-16T15:31:17.589Z,14.10
2018-10-16T15:33:51.864Z,13.17
2018-10-16T15:36:26.183Z,13.73
2018-10-16T15:39:00.351Z,13.53
2018-10-16T15:41:34.794Z,12.33
2018-10-16T15:44:25.767Z,12.47
2018-10-16T15:47:00.415Z,11.37
2018-10-16T15:49:34.798Z,10.40
2018-10-16T15:55:45.827Z,10.30
2018-10-16T15:58:20.268Z,11.07
2018-10-16T16:00:54.771Z,9.57
2018-10-16T16:03:29.210Z,10.33
2018-10-16T16:06:03.454Z,10.77
2018-10-16T16:08:37.810Z,10.30
2018-10-16T16:11:12.034Z,10.40
2018-10-16T16:13:46.395Z,10.77
2018-10-16T16:16:21.075Z,10.90
2018-10-16T16:18:55.387Z,10.53
2018-10-16T16:21:29.674Z,10.20
2018-10-16T16:24:03.950Z,12.87
2018-10-16T16:26:38.119Z,16.37
2018-10-16T16:29:12.567Z,14.60
2018-10-16T16:31:46.884Z,14.63
2018-10-16T16:34:21.235Z,13.37
2018-10-16T16:36:55.514Z,12.20
2018-10-16T16:39:29.759Z,10.70
2018-10-16T16:42:04.132Z,10.60
2018-10-16T16:44:38.438Z,10.87
2018-10-16T16:47:12.793Z,11.20
2018-10-16T16:49:47.103Z,11.00
2018-10-16T16:52:21.427Z,10.27
2018-10-16T16:54:55.628Z,11.73
2018-10-16T16:57:29.926Z,13.77
2018-10-16T17:00:04.313Z,11.00
2018-10-16T17:02:38.845Z,10.40
2018-10-16T17:05:13.516Z,11.17
2018-10-16T17:07:47.775Z,10.50
2018-10-16T17:10:22.098Z,10.60
2018-10-16T17:12:56.405Z,11.37
2018-10-16T17:15:30.694Z,11.43
2018-10-16T17:18:04.898Z,11.40
2018-10-16T17:20:39.072Z,10.97
2018-10-16T17:23:13.427Z,11.53
2018-10-16T17:25:47.937Z,11.43
2018-10-16T17:28:22.002Z,10.90
2018-10-16T17:30:56.442Z,11.23
2018-10-16T17:33:30.675Z,10.60
2018-10-16T17:36:05.171Z,10.80
2018-10-16T17:38:39.303Z,11.93
2018-10-16T17:41:13.554Z,11.67
2018-10-16T17:43:47.770Z,12.43
2018-10-16T17:46:21.935Z,11.20
2018-10-16T17:48:56.363Z,11.40
2018-10-16T17:51:30.799Z,11.73
2018-10-16T17:54:05.075Z,12.00
2018-10-16T17:56:39.266Z,11.80
2018-10-16T17:59:14.378Z,12.00
2018-10-16T18:01:48.561Z,11.30
2018-10-16T18:04:22.839Z,11.53
2018-10-16T18:06:57.095Z,10.70
2018-10-16T18:23:16.346Z,12.53
2018-10-16T18:25:50.563Z,13.27
2018-10-16T18:28:24.735Z,13.90
2018-10-16T18:30:59.057Z,13.03
2018-10-16T18:33:33.584Z,12.77
2018-10-16T18:36:08.036Z,13.00
2018-10-16T18:38:42.309Z,13.97
2018-10-16T18:41:16.569Z,12.90
2018-10-16T18:43:50.991Z,13.33
2018-10-16T18:46:25.206Z,13.90
2018-10-16T18:48:59.447Z,13.63
2018-10-16T18:51:33.635Z,13.50
2018-10-16T18:54:07.960Z,13.20
2018-10-16T18:56:42.169Z,13.40
2018-10-16T18:59:16.477Z,13.00
2018-10-16T19:01:50.841Z,12.33
2018-10-16T19:04:25.322Z,13.20
2018-10-16T19:06:59.747Z,14.23
2018-10-16T19:09:33.939Z,13.07
2018-10-16T19:12:08.395Z,13.97
2018-10-16T19:14:42.764Z,13.03
2018-10-16T19:17:17.078Z,13.53
2018-10-16T19:19:51.378Z,12.33
2018-10-16T19:22:25.754Z,13.27
2018-10-16T19:25:00.063Z,13.43
2018-10-16T19:27:34.483Z,13.10
2018-10-16T19:30:09.883Z,13.97
2018-10-16T19:32:44.142Z,13.43
2018-10-16T19:35:18.418Z,13.17
2018-10-16T19:37:52.944Z,13.23
2018-10-16T19:43:59.803Z,12.63
2018-10-16T19:46:34.019Z,13.60
2018-10-16T19:49:08.263Z,13.67
2018-10-16T19:51:42.581Z,13.13
2018-10-16T19:54:16.891Z,14.60
2018-10-16T19:56:51.345Z,13.53
2018-10-16T19:59:25.694Z,13.83
2018-10-16T20:02:00.123Z,14.13
2018-10-16T20:04:34.543Z,13.17
2018-10-16T20:07:08.882Z,13.33
2018-10-16T20:09:43.035Z,14.07
2018-10-16T20:12:17.411Z,14.13
2018-10-16T20:14:51.793Z,13.93
2018-10-16T20:17:26.275Z,14.20
2018-10-16T20:20:00.491Z,14.00
2018-10-16T20:22:34.708Z,14.20
2018-10-16T20:25:09.689Z,15.00
2018-10-16T20:27:44.030Z,14.10
2018-10-16T20:30:18.214Z,13.97
2018-10-16T20:32:52.591Z,14.77
2018-10-16T20:35:26.902Z,13.77
2018-10-16T20:38:01.299Z,14.37
2018-10-16T20:40:35.474Z,14.97
2018-10-16T20:43:09.853Z,14.23
2018-10-16T20:45:44.083Z,13.77
2018-10-16T20:48:18.392Z,13.37
2018-10-16T20:50:52.669Z,13.03
2018-10-16T20:53:27.050Z,13.73
2018-10-16T20:56:01.403Z,14.27
2018-10-16T20:58:35.638Z,17.30
2018-10-16T21:01:11.688Z,14.93
2018-10-16T21:03:46.016Z,14.00
2018-10-16T21:06:20.677Z,13.00
2018-10-16T21:08:54.808Z,13.73
2018-10-16T21:11:29.069Z,14.50
2018-10-16T21:14:03.554Z,13.17
2018-10-16T21:16:37.753Z,13.00
2018-10-16T21:19:12.067Z,14.23
2018-10-16T21:21:46.210Z,13.50
2018-10-16T21:24:20.676Z,14.00
2018-10-16T21:27:06.482Z,13.43
2018-10-16T21:29:40.629Z,14.23
2018-10-16T21:32:14.921Z,13.37
2018-10-16T21:34:49.131Z,13.17
2018-10-16T21:37:23.454Z,13.63
2018-10-16T21:39:57.818Z,14.33
2018-10-16T21:42:32.122Z,13.03
2018-10-16T21:45:06.718Z,12.47
2018-10-16T21:47:41.048Z,12.63
2018-10-16T21:50:15.232Z,13.50
2018-10-16T21:52:49.458Z,12.90
2018-10-16T21:55:23.753Z,13.30
2018-10-16T21:57:57.990Z,13.13
2018-10-16T22:00:38.997Z,13.10
2018-10-16T22:03:13.150Z,12.70
2018-10-16T22:05:47.494Z,13.03
2018-10-16T22:08:21.725Z,14.37
2018-10-16T22:10:56.187Z,13.93
2018-10-16T22:13:30.431Z,13.10
2018-10-16T22:16:04.806Z,13.43
2018-10-16T22:18:39.138Z,13.17
2018-10-16T22:21:13.417Z,13.00
2018-10-16T22:23:47.786Z,12.70
2018-10-16T22:26:22.143Z,12.80
2018-10-16T22:28:56.338Z,13.30
2018-10-16T22:31:30.677Z,12.93
2018-10-16T22:34:05.354Z,13.00
2018-10-16T22:36:39.570Z,11.73
2018-10-16T22:39:13.974Z,13.77
2018-10-16T22:41:48.342Z,14.90
2018-10-16T22:44:22.890Z,13.80
2018-10-16T22:46:57.124Z,12.87
2018-10-16T22:49:31.458Z,13.00
2018-10-16T22:52:05.622Z,13.50
2018-10-16T22:54:39.935Z,11.87
2018-10-16T22:57:14.142Z,12.27
2018-10-16T22:59:48.370Z,12.77
2018-10-16T23:02:22.610Z,12.87
2018-10-16T23:04:56.889Z,11.87
2018-10-16T23:07:31.271Z,13.13
2018-10-16T23:10:05.850Z,12.83
2018-10-16T23:12:40.017Z,12.27
2018-10-16T23:15:14.442Z,12.43
2018-10-16T23:17:48.774Z,12.00
2018-10-16T23:20:23.218Z,11.93
2018-10-16T23:22:57.611Z,11.63
2018-10-16T23:25:31.858Z,12.33
2018-10-16T23:28:06.089Z,11.53
2018-10-16T23:30:40.278Z,11.30
2018-10-16T23:33:14.648Z,11.27
2018-10-16T23:35:48.934Z,11.60
2018-10-16T23:38:23.238Z,11.00
2018-10-16T23:40:57.634Z,11.60
2018-10-16T23:43:32.098Z,10.87
2018-10-16T23:46:06.829Z,11.70
2018-10-16T23:48:41.024Z,10.77
2018-10-16T23:51:15.378Z,10.87
2018-10-16T23:53:49.698Z,10.43
2018-10-16T23:56:23.878Z,10.43
2018-10-16T23:58:58.321Z,10.43
